sensor_id;sensor_type;location;lat;lon;timestamp;P1;durP1;ratioP1;P2;durP2;ratioP2
43650;SDS011;29247;50.944;5.382;2023-10-19T00:00:33;1.90;;;1.42;;
43650;SDS011;29247;50.944;5.382;2023-10-19T00:03:04;1.23;;;1.10;;
43650;SDS011;29247;50.944;5.382;2023-10-19T00:05:35;1.67;;;1.50;;
43650;SDS011;29247;50.944;5.382;2023-10-19T00:08:02;1.92;;;1.15;;
43650;SDS011;29247;50.944;5.382;2023-10-19T00:10:52;1.55;;;1.27;;
43650;SDS011;29247;50.944;5.382;2023-10-19T00:13:48;1.58;;;1.30;;
43650;SDS011;29247;50.944;5.382;2023-10-19T00:16:34;2.90;;;1.45;;
43650;SDS011;29247;50.944;5.382;2023-10-19T00:19:00;1.33;;;1.05;;
43650;SDS011;29247;50.944;5.382;2023-10-19T00:21:28;2.17;;;1.27;;
43650;SDS011;29247;50.944;5.382;2023-10-19T00:23:55;1.50;;;1.30;;
43650;SDS011;29247;50.944;5.382;2023-10-19T00:26:22;2.80;;;1.05;;
43650;SDS011;29247;50.944;5.382;2023-10-19T00:28:50;1.20;;;1.10;;
43650;SDS011;29247;50.944;5.382;2023-10-19T00:31:21;1.10;;;1.00;;
43650;SDS011;29247;50.944;5.382;2023-10-19T00:33:47;2.50;;;1.25;;
43650;SDS011;29247;50.944;5.382;2023-10-19T00:36:16;1.48;;;1.30;;
43650;SDS011;29247;50.944;5.382;2023-10-19T00:38:48;3.67;;;1.38;;
43650;SDS011;29247;50.944;5.382;2023-10-19T00:41:14;1.40;;;1.10;;
43650;SDS011;29247;50.944;5.382;2023-10-19T00:43:46;1.50;;;1.10;;
43650;SDS011;29247;50.944;5.382;2023-10-19T00:46:22;1.48;;;1.10;;
43650;SDS011;29247;50.944;5.382;2023-10-19T00:49:08;0.85;;;0.85;;
43650;SDS011;29247;50.944;5.382;2023-10-19T00:56:59;0.93;;;0.80;;
43650;SDS011;29247;50.944;5.382;2023-10-19T00:59:36;2.60;;;0.85;;
43650;SDS011;29247;50.944;5.382;2023-10-19T01:02:14;2.60;;;0.85;;
43650;SDS011;29247;50.944;5.382;2023-10-19T01:04:52;2.13;;;0.80;;
43650;SDS011;29247;50.944;5.382;2023-10-19T01:07:22;5.90;;;0.75;;
43650;SDS011;29247;50.944;5.382;2023-10-19T01:09:51;1.88;;;0.65;;
43650;SDS011;29247;50.944;5.382;2023-10-19T01:12:19;2.47;;;0.70;;
43650;SDS011;29247;50.944;5.382;2023-10-19T01:15:06;0.70;;;0.60;;
43650;SDS011;29247;50.944;5.382;2023-10-19T01:17:46;1.88;;;0.45;;
43650;SDS011;29247;50.944;5.382;2023-10-19T01:20:22;1.38;;;0.47;;
43650;SDS011;29247;50.944;5.382;2023-10-19T01:23:07;0.90;;;0.47;;
43650;SDS011;29247;50.944;5.382;2023-10-19T01:28:19;4.15;;;0.50;;
43650;SDS011;29247;50.944;5.382;2023-10-19T01:34:11;2.92;;;0.40;;
43650;SDS011;29247;50.944;5.382;2023-10-19T01:36:39;0.52;;;0.52;;
43650;SDS011;29247;50.944;5.382;2023-10-19T01:39:10;0.60;;;0.52;;
43650;SDS011;29247;50.944;5.382;2023-10-19T01:41:36;0.40;;;0.40;;
43650;SDS011;29247;50.944;5.382;2023-10-19T01:44:05;4.78;;;0.63;;
43650;SDS011;29247;50.944;5.382;2023-10-19T01:46:38;0.77;;;0.50;;
43650;SDS011;29247;50.944;5.382;2023-10-19T01:49:04;4.15;;;0.70;;
43650;SDS011;29247;50.944;5.382;2023-10-19T01:51:35;2.42;;;0.50;;
43650;SDS011;29247;50.944;5.382;2023-10-19T01:54:07;1.25;;;0.50;;
43650;SDS011;29247;50.944;5.382;2023-10-19T01:56:33;0.85;;;0.50;;
43650;SDS011;29247;50.944;5.382;2023-10-19T01:59:01;1.17;;;0.57;;
43650;SDS011;29247;50.944;5.382;2023-10-19T02:01:29;2.15;;;0.65;;
43650;SDS011;29247;50.944;5.382;2023-10-19T02:03:57;4.80;;;1.00;;
43650;SDS011;29247;50.944;5.382;2023-10-19T02:06:27;1.48;;;0.70;;
43650;SDS011;29247;50.944;5.382;2023-10-19T02:11:34;1.25;;;0.60;;
43650;SDS011;29247;50.944;5.382;2023-10-19T02:14:05;1.10;;;0.60;;
43650;SDS011;29247;50.944;5.382;2023-10-19T02:16:39;4.95;;;0.60;;
43650;SDS011;29247;50.944;5.382;2023-10-19T02:19:06;2.45;;;0.60;;
43650;SDS011;29247;50.944;5.382;2023-10-19T02:21:31;3.17;;;0.50;;
43650;SDS011;29247;50.944;5.382;2023-10-19T02:24:02;0.75;;;0.40;;
43650;SDS011;29247;50.944;5.382;2023-10-19T02:26:29;1.48;;;0.40;;
43650;SDS011;29247;50.944;5.382;2023-10-19T02:28:56;1.63;;;0.43;;
43650;SDS011;29247;50.944;5.382;2023-10-19T02:31:23;1.02;;;0.50;;
43650;SDS011;29247;50.944;5.382;2023-10-19T02:33:52;1.95;;;0.50;;
43650;SDS011;29247;50.944;5.382;2023-10-19T02:36:25;0.52;;;0.50;;
43650;SDS011;29247;50.944;5.382;2023-10-19T02:38:55;2.17;;;0.50;;
43650;SDS011;29247;50.944;5.382;2023-10-19T02:41:25;1.63;;;0.73;;
43650;SDS011;29247;50.944;5.382;2023-10-19T02:43:52;0.77;;;0.47;;
43650;SDS011;29247;50.944;5.382;2023-10-19T02:46:35;1.17;;;0.60;;
43650;SDS011;29247;50.944;5.382;2023-10-19T02:49:07;2.58;;;0.55;;
43650;SDS011;29247;50.944;5.382;2023-10-19T02:51:38;4.38;;;0.70;;
43650;SDS011;29247;50.944;5.382;2023-10-19T02:54:06;9.20;;;0.82;;
43650;SDS011;29247;50.944;5.382;2023-10-19T02:56:41;1.77;;;0.70;;
43650;SDS011;29247;50.944;5.382;2023-10-19T02:59:09;3.00;;;0.70;;
43650;SDS011;29247;50.944;5.382;2023-10-19T03:01:35;2.63;;;0.57;;
43650;SDS011;29247;50.944;5.382;2023-10-19T03:04:03;2.13;;;0.50;;
43650;SDS011;29247;50.944;5.382;2023-10-19T03:06:30;1.13;;;0.50;;
43650;SDS011;29247;50.944;5.382;2023-10-19T03:08:59;2.20;;;0.60;;
43650;SDS011;29247;50.944;5.382;2023-10-19T03:12:00;1.27;;;0.60;;
43650;SDS011;29247;50.944;5.382;2023-10-19T03:14:35;1.98;;;0.50;;
43650;SDS011;29247;50.944;5.382;2023-10-19T03:17:04;0.95;;;0.57;;
43650;SDS011;29247;50.944;5.382;2023-10-19T03:19:33;2.85;;;0.80;;
43650;SDS011;29247;50.944;5.382;2023-10-19T03:21:59;2.58;;;0.70;;
43650;SDS011;29247;50.944;5.382;2023-10-19T03:24:25;2.33;;;0.60;;
43650;SDS011;29247;50.944;5.382;2023-10-19T03:27:04;3.38;;;0.60;;
43650;SDS011;29247;50.944;5.382;2023-10-19T03:29:50;2.85;;;0.77;;
43650;SDS011;29247;50.944;5.382;2023-10-19T03:32:26;1.08;;;0.50;;
43650;SDS011;29247;50.944;5.382;2023-10-19T03:35:00;0.77;;;0.52;;
43650;SDS011;29247;50.944;5.382;2023-10-19T03:37:28;0.75;;;0.50;;
43650;SDS011;29247;50.944;5.382;2023-10-19T03:40:00;0.85;;;0.40;;
43650;SDS011;29247;50.944;5.382;2023-10-19T03:42:34;1.25;;;0.50;;
43650;SDS011;29247;50.944;5.382;2023-10-19T03:45:06;1.65;;;0.88;;
43650;SDS011;29247;50.944;5.382;2023-10-19T03:47:38;1.25;;;0.60;;
43650;SDS011;29247;50.944;5.382;2023-10-19T03:50:04;1.40;;;0.80;;
43650;SDS011;29247;50.944;5.382;2023-10-19T03:52:38;3.33;;;0.60;;
43650;SDS011;29247;50.944;5.382;2023-10-19T03:55:07;4.68;;;0.80;;
43650;SDS011;29247;50.944;5.382;2023-10-19T03:57:37;1.80;;;0.60;;
43650;SDS011;29247;50.944;5.382;2023-10-19T04:00:15;2.78;;;0.50;;
43650;SDS011;29247;50.944;5.382;2023-10-19T04:02:43;4.15;;;0.60;;
43650;SDS011;29247;50.944;5.382;2023-10-19T04:05:09;3.83;;;0.85;;
43650;SDS011;29247;50.944;5.382;2023-10-19T04:07:40;2.55;;;0.60;;
43650;SDS011;29247;50.944;5.382;2023-10-19T04:10:08;1.15;;;0.45;;
43650;SDS011;29247;50.944;5.382;2023-10-19T04:12:35;1.40;;;0.55;;
43650;SDS011;29247;50.944;5.382;2023-10-19T04:15:04;1.77;;;0.60;;
43650;SDS011;29247;50.944;5.382;2023-10-19T04:17:36;2.08;;;0.50;;
43650;SDS011;29247;50.944;5.382;2023-10-19T04:20:03;4.00;;;0.60;;
43650;SDS011;29247;50.944;5.382;2023-10-19T04:22:41;3.38;;;0.68;;
43650;SDS011;29247;50.944;5.382;2023-10-19T04:25:08;4.43;;;0.73;;
43650;SDS011;29247;50.944;5.382;2023-10-19T04:27:37;2.35;;;0.50;;
43650;SDS011;29247;50.944;5.382;2023-10-19T04:30:03;1.70;;;0.75;;
43650;SDS011;29247;50.944;5.382;2023-10-19T04:32:30;4.75;;;0.82;;
43650;SDS011;29247;50.944;5.382;2023-10-19T04:34:57;2.55;;;0.82;;
43650;SDS011;29247;50.944;5.382;2023-10-19T04:37:25;2.53;;;0.60;;
43650;SDS011;29247;50.944;5.382;2023-10-19T04:39:50;4.82;;;0.73;;
43650;SDS011;29247;50.944;5.382;2023-10-19T04:42:16;1.42;;;0.60;;
43650;SDS011;29247;50.944;5.382;2023-10-19T04:44:44;0.85;;;0.60;;
43650;SDS011;29247;50.944;5.382;2023-10-19T04:47:12;3.22;;;0.80;;
43650;SDS011;29247;50.944;5.382;2023-10-19T04:52:09;10.77;;;0.88;;
43650;SDS011;29247;50.944;5.382;2023-10-19T04:54:34;9.05;;;0.70;;
43650;SDS011;29247;50.944;5.382;2023-10-19T04:57:00;2.88;;;0.70;;
43650;SDS011;29247;50.944;5.382;2023-10-19T04:59:25;1.52;;;0.70;;
43650;SDS011;29247;50.944;5.382;2023-10-19T05:01:53;2.33;;;0.77;;
43650;SDS011;29247;50.944;5.382;2023-10-19T05:04:20;1.85;;;0.82;;
43650;SDS011;29247;50.944;5.382;2023-10-19T05:06:46;1.70;;;0.70;;
43650;SDS011;29247;50.944;5.382;2023-10-19T05:09:11;3.83;;;0.60;;
43650;SDS011;29247;50.944;5.382;2023-10-19T05:11:39;2.75;;;0.70;;
43650;SDS011;29247;50.944;5.382;2023-10-19T05:14:05;4.15;;;0.80;;
43650;SDS011;29247;50.944;5.382;2023-10-19T05:16:31;2.83;;;0.70;;
43650;SDS011;29247;50.944;5.382;2023-10-19T05:18:56;3.63;;;0.77;;
43650;SDS011;29247;50.944;5.382;2023-10-19T05:21:22;1.65;;;0.60;;
43650;SDS011;29247;50.944;5.382;2023-10-19T05:23:47;2.67;;;0.60;;
43650;SDS011;29247;50.944;5.382;2023-10-19T05:26:13;2.40;;;0.68;;
43650;SDS011;29247;50.944;5.382;2023-10-19T05:28:40;1.48;;;0.70;;
43650;SDS011;29247;50.944;5.382;2023-10-19T05:31:07;2.08;;;0.77;;
43650;SDS011;29247;50.944;5.382;2023-10-19T05:33:33;5.50;;;0.80;;
43650;SDS011;29247;50.944;5.382;2023-10-19T05:35:59;2.47;;;0.70;;
43650;SDS011;29247;50.944;5.382;2023-10-19T05:38:26;2.92;;;0.65;;
43650;SDS011;29247;50.944;5.382;2023-10-19T05:40:52;2.38;;;0.82;;
43650;SDS011;29247;50.944;5.382;2023-10-19T05:43:17;3.85;;;0.85;;
43650;SDS011;29247;50.944;5.382;2023-10-19T05:45:43;4.95;;;0.77;;
43650;SDS011;29247;50.944;5.382;2023-10-19T05:48:14;4.18;;;0.70;;
43650;SDS011;29247;50.944;5.382;2023-10-19T05:50:40;3.30;;;0.70;;
43650;SDS011;29247;50.944;5.382;2023-10-19T05:53:09;4.80;;;1.00;;
43650;SDS011;29247;50.944;5.382;2023-10-19T05:55:35;2.67;;;0.75;;
43650;SDS011;29247;50.944;5.382;2023-10-19T05:58:01;2.13;;;0.60;;
43650;SDS011;29247;50.944;5.382;2023-10-19T06:00:30;6.30;;;0.70;;
43650;SDS011;29247;50.944;5.382;2023-10-19T06:02:59;3.97;;;0.80;;
43650;SDS011;29247;50.944;5.382;2023-10-19T06:05:24;2.75;;;0.60;;
43650;SDS011;29247;50.944;5.382;2023-10-19T06:07:50;2.33;;;0.75;;
43650;SDS011;29247;50.944;5.382;2023-10-19T06:10:17;5.78;;;0.70;;
43650;SDS011;29247;50.944;5.382;2023-10-19T06:12:45;1.13;;;0.70;;
43650;SDS011;29247;50.944;5.382;2023-10-19T06:15:12;3.72;;;0.60;;
43650;SDS011;29247;50.944;5.382;2023-10-19T06:17:40;1.25;;;0.70;;
43650;SDS011;29247;50.944;5.382;2023-10-19T06:20:07;1.33;;;0.60;;
43650;SDS011;29247;50.944;5.382;2023-10-19T06:22:37;6.35;;;0.60;;
43650;SDS011;29247;50.944;5.382;2023-10-19T06:25:03;1.63;;;0.60;;
43650;SDS011;29247;50.944;5.382;2023-10-19T06:27:31;3.40;;;0.88;;
43650;SDS011;29247;50.944;5.382;2023-10-19T06:29:57;2.58;;;0.65;;
43650;SDS011;29247;50.944;5.382;2023-10-19T06:32:25;2.95;;;0.55;;
43650;SDS011;29247;50.944;5.382;2023-10-19T06:34:52;4.40;;;0.80;;
43650;SDS011;29247;50.944;5.382;2023-10-19T06:37:18;3.30;;;1.02;;
43650;SDS011;29247;50.944;5.382;2023-10-19T06:39:43;8.35;;;1.30;;
43650;SDS011;29247;50.944;5.382;2023-10-19T06:42:09;4.20;;;0.68;;
43650;SDS011;29247;50.944;5.382;2023-10-19T06:44:39;3.13;;;0.82;;
43650;SDS011;29247;50.944;5.382;2023-10-19T06:47:10;1.27;;;0.70;;
43650;SDS011;29247;50.944;5.382;2023-10-19T06:49:37;4.15;;;0.73;;
43650;SDS011;29247;50.944;5.382;2023-10-19T06:52:03;3.72;;;0.70;;
43650;SDS011;29247;50.944;5.382;2023-10-19T06:54:30;4.72;;;0.93;;
43650;SDS011;29247;50.944;5.382;2023-10-19T06:56:58;1.40;;;0.70;;
43650;SDS011;29247;50.944;5.382;2023-10-19T06:59:24;3.33;;;0.80;;
43650;SDS011;29247;50.944;5.382;2023-10-19T07:01:50;4.35;;;0.80;;
43650;SDS011;29247;50.944;5.382;2023-10-19T07:04:16;5.25;;;0.88;;
43650;SDS011;29247;50.944;5.382;2023-10-19T07:06:41;4.40;;;0.93;;
43650;SDS011;29247;50.944;5.382;2023-10-19T07:09:07;5.95;;;1.00;;
43650;SDS011;29247;50.944;5.382;2023-10-19T07:11:35;2.78;;;0.77;;
43650;SDS011;29247;50.944;5.382;2023-10-19T07:14:01;1.08;;;0.60;;
43650;SDS011;29247;50.944;5.382;2023-10-19T07:18:57;4.32;;;1.35;;
43650;SDS011;29247;50.944;5.382;2023-10-19T07:21:24;3.92;;;0.80;;
43650;SDS011;29247;50.944;5.382;2023-10-19T07:23:50;4.03;;;0.90;;
43650;SDS011;29247;50.944;5.382;2023-10-19T07:26:18;1.50;;;0.75;;
43650;SDS011;29247;50.944;5.382;2023-10-19T07:28:46;2.05;;;0.85;;
43650;SDS011;29247;50.944;5.382;2023-10-19T07:31:11;2.05;;;0.68;;
43650;SDS011;29247;50.944;5.382;2023-10-19T07:33:40;1.98;;;0.77;;
43650;SDS011;29247;50.944;5.382;2023-10-19T07:36:13;0.70;;;0.60;;
43650;SDS011;29247;50.944;5.382;2023-10-19T07:38:39;8.88;;;0.82;;
43650;SDS011;29247;50.944;5.382;2023-10-19T07:41:07;2.08;;;1.13;;
43650;SDS011;29247;50.944;5.382;2023-10-19T07:43:37;5.68;;;1.00;;
43650;SDS011;29247;50.944;5.382;2023-10-19T07:46:08;1.35;;;0.60;;
43650;SDS011;29247;50.944;5.382;2023-10-19T07:48:36;3.03;;;0.75;;
43650;SDS011;29247;50.944;5.382;2023-10-19T07:51:03;4.43;;;1.33;;
43650;SDS011;29247;50.944;5.382;2023-10-19T07:53:34;3.58;;;1.00;;
43650;SDS011;29247;50.944;5.382;2023-10-19T07:56:02;4.57;;;1.20;;
43650;SDS011;29247;50.944;5.382;2023-10-19T07:58:28;1.17;;;0.60;;
43650;SDS011;29247;50.944;5.382;2023-10-19T08:00:58;1.40;;;0.70;;
43650;SDS011;29247;50.944;5.382;2023-10-19T08:03:23;3.63;;;0.70;;
43650;SDS011;29247;50.944;5.382;2023-10-19T08:05:50;1.77;;;0.70;;
43650;SDS011;29247;50.944;5.382;2023-10-19T08:08:20;5.00;;;0.90;;
43650;SDS011;29247;50.944;5.382;2023-10-19T08:10:49;4.88;;;1.23;;
43650;SDS011;29247;50.944;5.382;2023-10-19T08:13:17;2.63;;;0.80;;
43650;SDS011;29247;50.944;5.382;2023-10-19T08:15:43;1.88;;;0.60;;
43650;SDS011;29247;50.944;5.382;2023-10-19T08:18:08;3.13;;;0.85;;
43650;SDS011;29247;50.944;5.382;2023-10-19T08:20:39;3.95;;;0.88;;
43650;SDS011;29247;50.944;5.382;2023-10-19T08:25:38;3.00;;;0.80;;
43650;SDS011;29247;50.944;5.382;2023-10-19T08:28:08;3.47;;;1.00;;
43650;SDS011;29247;50.944;5.382;2023-10-19T08:30:37;4.60;;;1.00;;
43650;SDS011;29247;50.944;5.382;2023-10-19T08:33:05;2.95;;;0.82;;
43650;SDS011;29247;50.944;5.382;2023-10-19T08:35:34;5.00;;;0.85;;
43650;SDS011;29247;50.944;5.382;2023-10-19T08:38:00;4.22;;;1.10;;
43650;SDS011;29247;50.944;5.382;2023-10-19T08:40:35;5.72;;;1.10;;
43650;SDS011;29247;50.944;5.382;2023-10-19T08:43:00;3.38;;;0.93;;
43650;SDS011;29247;50.944;5.382;2023-10-19T08:45:26;6.72;;;1.10;;
43650;SDS011;29247;50.944;5.382;2023-10-19T08:47:53;5.53;;;1.00;;
43650;SDS011;29247;50.944;5.382;2023-10-19T08:50:26;6.30;;;1.02;;
43650;SDS011;29247;50.944;5.382;2023-10-19T08:53:06;3.22;;;1.10;;
43650;SDS011;29247;50.944;5.382;2023-10-19T08:55:33;9.32;;;1.20;;
43650;SDS011;29247;50.944;5.382;2023-10-19T08:57:59;6.93;;;1.08;;
43650;SDS011;29247;50.944;5.382;2023-10-19T09:00:38;5.88;;;1.30;;
43650;SDS011;29247;50.944;5.382;2023-10-19T09:03:12;1.80;;;1.00;;
43650;SDS011;29247;50.944;5.382;2023-10-19T09:05:39;5.10;;;1.20;;
43650;SDS011;29247;50.944;5.382;2023-10-19T09:08:05;4.60;;;1.20;;
43650;SDS011;29247;50.944;5.382;2023-10-19T09:10:31;6.03;;;1.60;;
43650;SDS011;29247;50.944;5.382;2023-10-19T09:13:08;6.18;;;1.73;;
43650;SDS011;29247;50.944;5.382;2023-10-19T09:15:35;11.80;;;1.80;;
43650;SDS011;29247;50.944;5.382;2023-10-19T09:18:15;7.13;;;1.42;;
43650;SDS011;29247;50.944;5.382;2023-10-19T09:20:48;5.25;;;1.10;;
43650;SDS011;29247;50.944;5.382;2023-10-19T09:23:19;6.30;;;1.20;;
43650;SDS011;29247;50.944;5.382;2023-10-19T09:25:48;4.80;;;1.17;;
43650;SDS011;29247;50.944;5.382;2023-10-19T09:28:15;4.90;;;1.00;;
43650;SDS011;29247;50.944;5.382;2023-10-19T09:30:41;5.78;;;1.27;;
43650;SDS011;29247;50.944;5.382;2023-10-19T09:33:09;3.05;;;1.33;;
43650;SDS011;29247;50.944;5.382;2023-10-19T09:35:34;5.68;;;0.98;;
43650;SDS011;29247;50.944;5.382;2023-10-19T09:38:03;6.57;;;1.20;;
43650;SDS011;29247;50.944;5.382;2023-10-19T09:40:33;9.73;;;1.27;;
43650;SDS011;29247;50.944;5.382;2023-10-19T09:42:59;8.63;;;1.38;;
43650;SDS011;29247;50.944;5.382;2023-10-19T09:45:31;9.57;;;1.88;;
43650;SDS011;29247;50.944;5.382;2023-10-19T09:48:02;6.38;;;1.20;;
43650;SDS011;29247;50.944;5.382;2023-10-19T09:50:34;9.60;;;1.25;;
43650;SDS011;29247;50.944;5.382;2023-10-19T09:53:02;7.85;;;1.10;;
43650;SDS011;29247;50.944;5.382;2023-10-19T09:55:30;6.20;;;1.27;;
43650;SDS011;29247;50.944;5.382;2023-10-19T10:00:31;10.02;;;1.80;;
43650;SDS011;29247;50.944;5.382;2023-10-19T10:02:57;11.13;;;1.25;;
43650;SDS011;29247;50.944;5.382;2023-10-19T10:10:48;4.05;;;1.17;;
43650;SDS011;29247;50.944;5.382;2023-10-19T10:15:52;8.05;;;1.20;;
43650;SDS011;29247;50.944;5.382;2023-10-19T10:18:20;4.43;;;1.30;;
43650;SDS011;29247;50.944;5.382;2023-10-19T10:26:24;5.15;;;1.05;;
43650;SDS011;29247;50.944;5.382;2023-10-19T10:31:48;6.38;;;0.90;;
43650;SDS011;29247;50.944;5.382;2023-10-19T10:37:09;9.00;;;2.08;;
43650;SDS011;29247;50.944;5.382;2023-10-19T10:39:39;8.95;;;1.00;;
43650;SDS011;29247;50.944;5.382;2023-10-19T10:42:06;5.22;;;1.15;;
43650;SDS011;29247;50.944;5.382;2023-10-19T10:44:43;8.88;;;1.75;;
43650;SDS011;29247;50.944;5.382;2023-10-19T10:47:20;6.20;;;1.10;;
43650;SDS011;29247;50.944;5.382;2023-10-19T10:52:28;2.85;;;0.90;;
43650;SDS011;29247;50.944;5.382;2023-10-19T10:54:59;4.65;;;1.02;;
43650;SDS011;29247;50.944;5.382;2023-10-19T10:57:38;6.00;;;1.13;;
43650;SDS011;29247;50.944;5.382;2023-10-19T11:00:08;3.95;;;1.05;;
43650;SDS011;29247;50.944;5.382;2023-10-19T11:02:40;6.15;;;1.00;;
43650;SDS011;29247;50.944;5.382;2023-10-19T11:05:15;6.97;;;1.40;;
43650;SDS011;29247;50.944;5.382;2023-10-19T11:07:41;4.95;;;1.42;;
43650;SDS011;29247;50.944;5.382;2023-10-19T11:10:41;3.95;;;1.08;;
43650;SDS011;29247;50.944;5.382;2023-10-19T11:13:11;5.70;;;1.27;;
43650;SDS011;29247;50.944;5.382;2023-10-19T11:15:39;9.20;;;1.50;;
43650;SDS011;29247;50.944;5.382;2023-10-19T11:18:27;7.38;;;1.17;;
43650;SDS011;29247;50.944;5.382;2023-10-19T11:21:11;5.35;;;1.13;;
43650;SDS011;29247;50.944;5.382;2023-10-19T11:26:10;4.32;;;1.17;;
43650;SDS011;29247;50.944;5.382;2023-10-19T11:28:45;2.70;;;1.40;;
43650;SDS011;29247;50.944;5.382;2023-10-19T11:31:17;8.25;;;1.15;;
43650;SDS011;29247;50.944;5.382;2023-10-19T11:33:50;4.53;;;1.13;;
43650;SDS011;29247;50.944;5.382;2023-10-19T11:36:18;3.05;;;1.20;;
43650;SDS011;29247;50.944;5.382;2023-10-19T11:38:46;5.18;;;1.30;;
43650;SDS011;29247;50.944;5.382;2023-10-19T11:41:13;6.07;;;1.48;;
43650;SDS011;29247;50.944;5.382;2023-10-19T11:43:40;6.65;;;1.05;;
43650;SDS011;29247;50.944;5.382;2023-10-19T11:46:07;6.03;;;1.45;;
43650;SDS011;29247;50.944;5.382;2023-10-19T11:48:34;2.75;;;1.10;;
43650;SDS011;29247;50.944;5.382;2023-10-19T11:51:01;3.83;;;1.10;;
43650;SDS011;29247;50.944;5.382;2023-10-19T11:53:34;5.32;;;1.05;;
43650;SDS011;29247;50.944;5.382;2023-10-19T11:56:06;2.63;;;0.90;;
43650;SDS011;29247;50.944;5.382;2023-10-19T11:58:34;4.20;;;0.90;;
43650;SDS011;29247;50.944;5.382;2023-10-19T12:01:02;5.13;;;1.40;;
43650;SDS011;29247;50.944;5.382;2023-10-19T12:06:04;7.40;;;1.20;;
43650;SDS011;29247;50.944;5.382;2023-10-19T12:08:31;9.43;;;1.10;;
43650;SDS011;29247;50.944;5.382;2023-10-19T12:10:59;4.45;;;0.90;;
43650;SDS011;29247;50.944;5.382;2023-10-19T12:13:27;4.93;;;1.00;;
43650;SDS011;29247;50.944;5.382;2023-10-19T12:15:53;3.63;;;0.90;;
43650;SDS011;29247;50.944;5.382;2023-10-19T12:18:20;3.63;;;0.98;;
43650;SDS011;29247;50.944;5.382;2023-10-19T12:20:46;3.83;;;1.00;;
43650;SDS011;29247;50.944;5.382;2023-10-19T12:23:12;3.95;;;1.00;;
43650;SDS011;29247;50.944;5.382;2023-10-19T12:25:39;2.08;;;1.00;;
43650;SDS011;29247;50.944;5.382;2023-10-19T12:28:07;4.28;;;1.25;;
43650;SDS011;29247;50.944;5.382;2023-10-19T12:30:38;4.97;;;1.00;;
43650;SDS011;29247;50.944;5.382;2023-10-19T12:33:06;4.45;;;1.10;;
43650;SDS011;29247;50.944;5.382;2023-10-19T12:35:40;2.45;;;1.10;;
43650;SDS011;29247;50.944;5.382;2023-10-19T12:38:14;3.08;;;0.98;;
43650;SDS011;29247;50.944;5.382;2023-10-19T12:43:14;4.18;;;1.20;;
43650;SDS011;29247;50.944;5.382;2023-10-19T12:45:44;4.18;;;1.00;;
43650;SDS011;29247;50.944;5.382;2023-10-19T12:48:17;5.53;;;0.90;;
43650;SDS011;29247;50.944;5.382;2023-10-19T12:53:11;1.75;;;1.20;;
43650;SDS011;29247;50.944;5.382;2023-10-19T12:55:39;3.92;;;1.08;;
43650;SDS011;29247;50.944;5.382;2023-10-19T12:58:08;6.03;;;1.20;;
43650;SDS011;29247;50.944;5.382;2023-10-19T13:00:36;5.88;;;0.93;;
43650;SDS011;29247;50.944;5.382;2023-10-19T13:03:15;2.38;;;0.85;;
43650;SDS011;29247;50.944;5.382;2023-10-19T13:05:46;3.17;;;0.93;;
43650;SDS011;29247;50.944;5.382;2023-10-19T13:08:11;3.00;;;1.27;;
43650;SDS011;29247;50.944;5.382;2023-10-19T13:10:43;1.63;;;1.23;;
43650;SDS011;29247;50.944;5.382;2023-10-19T13:13:14;3.78;;;1.50;;
43650;SDS011;29247;50.944;5.382;2023-10-19T13:15:43;4.32;;;1.20;;
43650;SDS011;29247;50.944;5.382;2023-10-19T13:18:13;4.25;;;1.50;;
43650;SDS011;29247;50.944;5.382;2023-10-19T13:20:44;4.30;;;1.17;;
43650;SDS011;29247;50.944;5.382;2023-10-19T13:23:11;5.53;;;0.77;;
43650;SDS011;29247;50.944;5.382;2023-10-19T13:25:36;4.75;;;1.10;;
43650;SDS011;29247;50.944;5.382;2023-10-19T13:28:09;7.30;;;1.00;;
43650;SDS011;29247;50.944;5.382;2023-10-19T13:30:39;1.45;;;0.90;;
43650;SDS011;29247;50.944;5.382;2023-10-19T13:33:08;3.25;;;1.05;;
43650;SDS011;29247;50.944;5.382;2023-10-19T13:35:38;4.43;;;1.20;;
43650;SDS011;29247;50.944;5.382;2023-10-19T13:38:08;7.95;;;1.30;;
43650;SDS011;29247;50.944;5.382;2023-10-19T13:40:38;7.28;;;1.27;;
43650;SDS011;29247;50.944;5.382;2023-10-19T13:43:05;5.50;;;1.23;;
43650;SDS011;29247;50.944;5.382;2023-10-19T13:45:33;2.60;;;1.17;;
43650;SDS011;29247;50.944;5.382;2023-10-19T13:48:03;6.30;;;1.42;;
43650;SDS011;29247;50.944;5.382;2023-10-19T13:50:30;5.47;;;1.33;;
43650;SDS011;29247;50.944;5.382;2023-10-19T13:53:02;5.83;;;1.40;;
43650;SDS011;29247;50.944;5.382;2023-10-19T13:55:30;4.53;;;1.30;;
43650;SDS011;29247;50.944;5.382;2023-10-19T13:57:56;2.60;;;1.02;;
43650;SDS011;29247;50.944;5.382;2023-10-19T14:00:23;3.58;;;1.20;;
43650;SDS011;29247;50.944;5.382;2023-10-19T14:02:53;3.25;;;0.90;;
43650;SDS011;29247;50.944;5.382;2023-10-19T14:05:21;3.95;;;0.82;;
43650;SDS011;29247;50.944;5.382;2023-10-19T14:07:49;7.15;;;1.10;;
43650;SDS011;29247;50.944;5.382;2023-10-19T14:10:17;5.78;;;1.02;;
43650;SDS011;29247;50.944;5.382;2023-10-19T14:12:44;1.17;;;1.00;;
43650;SDS011;29247;50.944;5.382;2023-10-19T14:15:17;3.47;;;1.05;;
43650;SDS011;29247;50.944;5.382;2023-10-19T14:17:47;1.95;;;1.10;;
43650;SDS011;29247;50.944;5.382;2023-10-19T14:20:14;2.97;;;0.80;;
43650;SDS011;29247;50.944;5.382;2023-10-19T14:22:43;3.47;;;1.25;;
43650;SDS011;29247;50.944;5.382;2023-10-19T14:25:23;2.80;;;1.20;;
43650;SDS011;29247;50.944;5.382;2023-10-19T14:27:50;0.98;;;0.98;;
43650;SDS011;29247;50.944;5.382;2023-10-19T14:30:21;1.60;;;0.90;;
43650;SDS011;29247;50.944;5.382;2023-10-19T14:32:47;2.25;;;0.88;;
43650;SDS011;29247;50.944;5.382;2023-10-19T14:35:14;3.45;;;0.93;;
43650;SDS011;29247;50.944;5.382;2023-10-19T14:37:42;5.32;;;1.20;;
43650;SDS011;29247;50.944;5.382;2023-10-19T14:40:09;4.28;;;1.13;;
43650;SDS011;29247;50.944;5.382;2023-10-19T14:42:36;1.67;;;1.00;;
43650;SDS011;29247;50.944;5.382;2023-10-19T14:45:09;4.28;;;1.30;;
43650;SDS011;29247;50.944;5.382;2023-10-19T14:47:44;2.92;;;1.02;;
43650;SDS011;29247;50.944;5.382;2023-10-19T14:50:21;2.60;;;1.08;;
43650;SDS011;29247;50.944;5.382;2023-10-19T14:52:48;1.90;;;1.15;;
43650;SDS011;29247;50.944;5.382;2023-10-19T14:55:16;4.80;;;1.20;;
43650;SDS011;29247;50.944;5.382;2023-10-19T14:57:46;3.47;;;1.40;;
43650;SDS011;29247;50.944;5.382;2023-10-19T15:00:17;1.92;;;1.30;;
43650;SDS011;29247;50.944;5.382;2023-10-19T15:02:46;5.47;;;1.45;;
43650;SDS011;29247;50.944;5.382;2023-10-19T15:05:16;2.10;;;1.23;;
43650;SDS011;29247;50.944;5.382;2023-10-19T15:07:45;2.70;;;1.08;;
43650;SDS011;29247;50.944;5.382;2023-10-19T15:10:19;3.55;;;1.30;;
43650;SDS011;29247;50.944;5.382;2023-10-19T15:12:46;3.63;;;1.23;;
43650;SDS011;29247;50.944;5.382;2023-10-19T15:15:12;2.45;;;1.00;;
43650;SDS011;29247;50.944;5.382;2023-10-19T15:17:45;5.63;;;1.20;;
43650;SDS011;29247;50.944;5.382;2023-10-19T15:20:12;2.35;;;1.40;;
43650;SDS011;29247;50.944;5.382;2023-10-19T15:22:47;4.50;;;1.42;;
43650;SDS011;29247;50.944;5.382;2023-10-19T15:25:13;2.20;;;1.30;;
43650;SDS011;29247;50.944;5.382;2023-10-19T15:27:44;3.45;;;0.90;;
43650;SDS011;29247;50.944;5.382;2023-10-19T15:30:14;2.63;;;1.00;;
43650;SDS011;29247;50.944;5.382;2023-10-19T15:32:42;1.52;;;1.10;;
43650;SDS011;29247;50.944;5.382;2023-10-19T15:35:12;5.57;;;1.35;;
43650;SDS011;29247;50.944;5.382;2023-10-19T15:37:41;1.92;;;0.95;;
43650;SDS011;29247;50.944;5.382;2023-10-19T15:40:07;2.03;;;1.08;;
43650;SDS011;29247;50.944;5.382;2023-10-19T15:45:16;1.60;;;0.90;;
43650;SDS011;29247;50.944;5.382;2023-10-19T15:47:47;2.13;;;1.10;;
43650;SDS011;29247;50.944;5.382;2023-10-19T15:50:16;2.28;;;1.17;;
43650;SDS011;29247;50.944;5.382;2023-10-19T15:52:42;3.63;;;0.95;;
43650;SDS011;29247;50.944;5.382;2023-10-19T15:55:12;6.18;;;1.20;;
43650;SDS011;29247;50.944;5.382;2023-10-19T15:57:38;2.58;;;1.02;;
43650;SDS011;29247;50.944;5.382;2023-10-19T16:00:06;1.40;;;0.90;;